Ripon, Wisconsin
Current Conditions -  °F | °C
As of 4:29 PM on Sunday 23 Nov 2014 (Local Time) from KOSH Reporting Station
Light Rain Light Rain  
Wind Chill: 45°   Ceiling: 400
Heat Index: 45°   Visibility: 0.5mi
Dew Point: 44°   Wind: 0mph
Humidity: 97%   Direction: NA
Pressure: 29.42"   Gusts: NA
Location:  43.85°N, 88.84°W
Report Text: KOSH 232229Z 00000KT 1/2SM R36/2400V4000FT -RA FG VV004 07/07 A2942 RMK AO2 RAE2157B10 P0002 T00720067
Loading
Personal Weather Stations






























Interactive Weather Map New forecast layout! Learn more

10-Day Weather Forecast

Advertisements
Track Severe Weather on mobile